Time,TemperatureF,DewpointF,PressureIn,WindDirection,WindDirectionDegrees,WindSpeedMPH,WindSpeedGustMPH,Humidity,HourlyPrecipIn,Conditions,Clouds,dailyrainin,SoftwareType,DateUTC
2013-05-24 00:01:00,48.8,44.1,29.92,NNE,23,0.9,1.6,84,0.00,,,0.00,WUHU216HW,2013-05-24 07:01:00,
2013-05-24 00:06:00,48.8,44.1,29.92,North,0,0.4,1.6,84,0.00,,,0.00,WUHU216HW,2013-05-24 07:06:00,
2013-05-24 00:11:00,48.8,44.1,29.92,North,0,0.9,1.6,84,0.00,,,0.00,WUHU216HW,2013-05-24 07:11:00,
2013-05-24 00:16:00,48.8,44.1,29.92,North,0,0.4,1.6,84,0.00,,,0.00,WUHU216HW,2013-05-24 07:16:00,
2013-05-24 00:21:00,48.8,44.1,29.92,NNE,23,1.1,1.1,84,0.00,,,0.00,WUHU216HW,2013-05-24 07:21:00,
2013-05-24 00:26:00,48.6,43.9,29.92,NNE,23,0.9,1.1,84,0.00,,,0.00,WUHU216HW,2013-05-24 07:26:00,
2013-05-24 00:31:00,48.4,44.1,29.92,NNE,23,0.0,1.1,85,0.00,,,0.00,WUHU216HW,2013-05-24 07:31:00,
2013-05-24 00:36:00,48.4,44.1,29.92,NNE,23,0.0,1.1,85,0.00,,,0.00,WUHU216HW,2013-05-24 07:36:00,
2013-05-24 00:41:00,48.4,44.1,29.92,NNE,23,0.0,0.4,85,0.00,,,0.00,WUHU216HW,2013-05-24 07:41:00,
2013-05-24 00:46:00,48.2,43.9,29.92,NNE,23,0.0,0.0,85,0.00,,,0.00,WUHU216HW,2013-05-24 07:46:00,
2013-05-24 00:51:00,47.9,43.6,29.92,NNE,23,0.0,0.0,85,0.00,,,0.00,WUHU216HW,2013-05-24 07:51:00,
2013-05-24 00:56:00,47.9,43.6,29.92,NNE,23,0.0,1.1,85,0.00,,,0.00,WUHU216HW,2013-05-24 07:56:00,
2013-05-24 01:01:00,47.7,43.4,29.92,NNE,23,0.4,1.1,85,0.00,,,0.00,WUHU216HW,2013-05-24 08:01:00,
2013-05-24 01:06:00,47.7,43.4,29.92,NNE,23,0.2,1.1,85,0.00,,,0.00,WUHU216HW,2013-05-24 08:06:00,
2013-05-24 01:11:00,47.7,43.4,29.92,NNE,23,0.0,1.1,85,0.00,,,0.00,WUHU216HW,2013-05-24 08:11:00,
2013-05-24 01:16:00,47.5,43.2,29.92,NNE,23,0.0,0.4,85,0.00,,,0.00,WUHU216HW,2013-05-24 08:16:00,
2013-05-24 01:21:00,47.7,43.4,29.93,NNE,23,0.0,0.4,85,0.00,,,0.00,WUHU216HW,2013-05-24 08:21:00,
2013-05-24 01:26:00,47.9,43.6,29.92,NNE,23,0.0,0.0,85,0.00,,,0.00,WUHU216HW,2013-05-24 08:26:00,
2013-05-24 01:31:00,47.9,43.6,29.92,NNE,23,0.0,0.0,85,0.00,,,0.00,WUHU216HW,2013-05-24 08:31:00,
2013-05-24 01:36:00,47.9,43.6,29.92,NNE,23,0.0,0.0,85,0.00,,,0.00,WUHU216HW,2013-05-24 08:36:00,
2013-05-24 01:41:00,48.1,43.7,29.92,NNE,23,1.1,1.1,85,0.00,,,0.00,WUHU216HW,2013-05-24 08:41:00,
2013-05-24 01:46:00,48.1,44.1,29.92,NNE,23,0.0,1.1,86,0.00,,,0.00,WUHU216HW,2013-05-24 08:46:00,
2013-05-24 01:51:00,48.1,44.1,29.92,NNE,23,0.2,1.1,86,0.00,,,0.00,WUHU216HW,2013-05-24 08:51:00,
2013-05-24 01:56:00,48.1,44.1,29.92,NNE,23,0.0,0.7,86,0.00,,,0.00,WUHU216HW,2013-05-24 08:56:00,
2013-05-24 02:01:00,48.1,44.1,29.92,NNE,23,0.0,0.7,86,0.00,,,0.00,WUHU216HW,2013-05-24 09:01:00,
2013-05-24 02:06:00,48.1,44.1,29.92,NNE,23,0.0,0.0,86,0.00,,,0.00,WUHU216HW,2013-05-24 09:06:00,
2013-05-24 02:11:00,48.1,44.1,29.92,NNE,23,0.0,0.0,86,0.00,,,0.00,WUHU216HW,2013-05-24 09:11:00,
2013-05-24 02:16:00,48.1,44.1,29.92,NNE,23,0.0,0.0,86,0.00,,,0.00,WUHU216HW,2013-05-24 09:16:00,
2013-05-24 02:21:00,48.1,44.4,29.92,NNE,23,0.0,0.0,87,0.00,,,0.00,WUHU216HW,2013-05-24 09:21:00,
2013-05-24 02:26:00,48.1,44.4,29.92,NNE,23,0.0,0.0,87,0.00,,,0.00,WUHU216HW,2013-05-24 09:26:00,
2013-05-24 02:31:00,48.1,44.4,29.92,NNE,23,0.0,0.0,87,0.00,,,0.00,WUHU216HW,2013-05-24 09:31:00,
2013-05-24 02:36:00,48.1,44.4,29.92,NNE,23,0.0,0.0,87,0.00,,,0.00,WUHU216HW,2013-05-24 09:36:00,
2013-05-24 02:41:00,48.1,44.4,29.92,NNE,23,0.0,0.0,87,0.00,,,0.00,WUHU216HW,2013-05-24 09:41:00,
2013-05-24 02:46:00,48.1,44.4,29.92,NNE,23,0.9,0.9,87,0.00,,,0.00,WUHU216HW,2013-05-24 09:46:00,
2013-05-24 02:51:00,48.2,44.6,29.92,NNE,23,0.0,1.3,87,0.00,,,0.00,WUHU216HW,2013-05-24 09:51:00,
2013-05-24 02:56:00,48.2,44.6,29.92,NNE,23,0.9,1.3,87,0.00,,,0.00,WUHU216HW,2013-05-24 09:56:00,
2013-05-24 03:01:00,48.1,44.4,29.92,NNE,23,0.0,0.9,87,0.00,,,0.00,WUHU216HW,2013-05-24 10:01:00,
2013-05-24 03:06:00,47.9,44.2,29.92,NNE,23,0.0,0.0,87,0.00,,,0.00,WUHU216HW,2013-05-24 10:06:00,
2013-05-24 03:11:00,47.9,43.9,29.92,NNE,23,0.0,0.0,86,0.00,,,0.00,WUHU216HW,2013-05-24 10:11:00,
2013-05-24 03:16:00,47.9,44.2,29.93,NNE,23,0.0,0.0,87,0.00,,,0.00,WUHU216HW,2013-05-24 10:16:00,
2013-05-24 03:21:00,47.9,43.9,29.92,NNE,23,0.0,0.0,86,0.00,,,0.00,WUHU216HW,2013-05-24 10:21:00,
2013-05-24 03:26:00,47.9,43.9,29.92,NNE,23,0.0,0.0,86,0.00,,,0.00,WUHU216HW,2013-05-24 10:26:00,
2013-05-24 03:31:00,47.9,43.9,29.93,NNE,23,0.0,0.0,86,0.00,,,0.00,WUHU216HW,2013-05-24 10:31:00,
2013-05-24 03:36:00,47.9,43.9,29.92,NNE,23,0.0,0.0,86,0.00,,,0.00,WUHU216HW,2013-05-24 10:36:00,
2013-05-24 03:41:00,47.9,43.9,29.92,NNE,23,0.0,0.0,86,0.00,,,0.00,WUHU216HW,2013-05-24 10:41:00,
2013-05-24 03:46:00,47.9,43.9,29.92,NNE,23,0.0,0.0,86,0.00,,,0.00,WUHU216HW,2013-05-24 10:46:00,
2013-05-24 03:51:00,47.9,43.9,29.92,NNE,23,0.0,0.0,86,0.00,,,0.00,WUHU216HW,2013-05-24 10:51:00,
2013-05-24 03:56:00,48.1,44.1,29.93,NNE,23,0.0,0.0,86,0.00,,,0.00,WUHU216HW,2013-05-24 10:56:00,
2013-05-24 04:01:00,48.1,44.1,29.92,NNE,23,0.0,0.0,86,0.00,,,0.00,WUHU216HW,2013-05-24 11:01:00,
2013-05-24 04:06:00,48.1,44.1,29.92,NNE,23,0.0,0.0,86,0.01,,,0.00,WUHU216HW,2013-05-24 11:06:00,
2013-05-24 04:11:00,48.2,44.3,29.92,NNE,23,0.0,0.0,86,0.02,,,0.00,WUHU216HW,2013-05-24 11:11:00,
2013-05-24 04:16:00,48.2,44.3,29.92,NNE,23,0.0,0.0,86,0.02,,,0.00,WUHU216HW,2013-05-24 11:16:00,
2013-05-24 04:21:00,48.4,44.4,29.92,NNE,23,0.0,0.0,86,0.02,,,0.00,WUHU216HW,2013-05-24 11:21:00,
2013-05-24 04:26:00,48.4,44.7,29.92,NNE,23,0.0,0.0,87,0.02,,,0.00,WUHU216HW,2013-05-24 11:26:00,
2013-05-24 04:31:00,48.2,44.6,29.92,NNE,23,0.0,0.0,87,0.02,,,0.00,WUHU216HW,2013-05-24 11:31:00,
2013-05-24 04:36:00,48.2,44.6,29.93,NNE,23,0.0,0.2,87,0.02,,,0.00,WUHU216HW,2013-05-24 11:36:00,
2013-05-24 04:41:00,48.2,44.9,29.93,NNE,23,0.0,0.2,88,0.02,,,0.00,WUHU216HW,2013-05-24 11:41:00,
2013-05-24 04:46:00,48.1,44.7,29.93,NNE,23,0.0,0.0,88,0.02,,,0.00,WUHU216HW,2013-05-24 11:46:00,
2013-05-24 04:51:00,48.1,44.7,29.93,NNE,23,0.0,0.0,88,0.02,,,0.00,WUHU216HW,2013-05-24 11:51:00,
2013-05-24 04:56:00,48.2,44.9,29.93,NNE,23,0.0,0.0,88,0.02,,,0.00,WUHU216HW,2013-05-24 11:56:00,
2013-05-24 05:01:00,48.2,44.9,29.93,NNE,23,0.0,0.0,88,0.01,,,0.00,WUHU216HW,2013-05-24 12:01:00,
2013-05-24 05:06:00,48.2,44.9,29.93,NNE,23,0.0,0.0,88,0.00,,,0.00,WUHU216HW,2013-05-24 12:06:00,
2013-05-24 05:11:00,48.2,44.9,29.93,NNE,23,0.0,0.0,88,0.00,,,0.00,WUHU216HW,2013-05-24 12:11:00,
2013-05-24 05:16:00,48.4,45.1,29.93,NNE,23,0.0,0.0,88,0.00,,,0.00,WUHU216HW,2013-05-24 12:16:00,
2013-05-24 05:21:00,48.4,45.1,29.93,NNE,23,0.0,0.0,88,0.00,,,0.00,WUHU216HW,2013-05-24 12:21:00,
2013-05-24 05:26:00,48.4,45.1,29.93,NNE,23,0.0,0.0,88,0.00,,,0.00,WUHU216HW,2013-05-24 12:26:00,
2013-05-24 05:32:00,48.2,44.9,29.93,NNE,23,0.0,0.0,88,0.00,,,0.00,WUHU216HW,2013-05-24 12:32:00,
2013-05-24 05:36:00,48.4,45.1,29.93,NNE,23,0.0,0.0,88,0.00,,,0.00,WUHU216HW,2013-05-24 12:36:00,
2013-05-24 05:41:00,48.6,45.2,29.93,NNE,23,0.0,0.0,88,0.00,,,0.00,WUHU216HW,2013-05-24 12:41:00,
2013-05-24 05:47:00,48.6,45.2,29.93,NNE,23,0.0,0.4,88,0.01,,,0.00,WUHU216HW,2013-05-24 12:47:00,
2013-05-24 05:52:00,48.6,45.2,29.93,NNE,23,0.0,0.4,88,0.01,,,0.00,WUHU216HW,2013-05-24 12:52:00,
2013-05-24 05:57:00,48.6,45.2,29.94,NNE,23,0.0,0.0,88,0.01,,,0.00,WUHU216HW,2013-05-24 12:57:00,
2013-05-24 06:02:00,48.6,45.2,29.94,NNE,23,0.0,0.4,88,0.01,,,0.00,WUHU216HW,2013-05-24 13:02:00,
2013-05-24 06:07:00,48.6,45.2,29.94,NNE,23,0.2,0.4,88,0.01,,,0.00,WUHU216HW,2013-05-24 13:07:00,
2013-05-24 06:12:00,48.6,45.5,29.94,NNE,23,0.0,0.9,89,0.01,,,0.00,WUHU216HW,2013-05-24 13:12:00,
2013-05-24 06:17:00,48.6,45.5,29.94,NNE,23,0.0,0.9,89,0.01,,,0.00,WUHU216HW,2013-05-24 13:17:00,
2013-05-24 06:22:00,48.6,45.5,29.94,NNE,23,0.4,0.4,89,0.01,,,0.00,WUHU216HW,2013-05-24 13:22:00,
2013-05-24 06:27:00,48.6,45.5,29.94,NNE,23,0.0,0.4,89,0.01,,,0.00,WUHU216HW,2013-05-24 13:27:00,
2013-05-24 06:32:00,48.6,45.5,29.94,NNE,23,0.0,0.4,89,0.01,,,0.00,WUHU216HW,2013-05-24 13:32:00,
2013-05-24 06:37:00,48.8,45.7,29.94,NNE,23,0.0,0.4,89,0.01,,,0.00,WUHU216HW,2013-05-24 13:37:00,
2013-05-24 06:42:00,48.8,45.7,29.94,NNE,23,0.0,0.0,89,0.00,,,0.00,WUHU216HW,2013-05-24 13:42:00,
2013-05-24 06:47:00,48.6,45.9,29.94,NE,45,0.2,0.2,90,0.00,,,0.00,WUHU216HW,2013-05-24 13:47:00,
2013-05-24 06:52:00,48.8,46.0,29.94,ENE,68,0.0,0.9,90,0.00,,,0.00,WUHU216HW,2013-05-24 13:52:00,
2013-05-24 06:57:00,48.8,46.0,29.94,ENE,68,0.2,0.9,90,0.00,,,0.00,WUHU216HW,2013-05-24 13:57:00,
2013-05-24 07:02:00,49.0,46.2,29.94,NE,45,0.0,0.9,90,0.00,,,0.00,WUHU216HW,2013-05-24 14:02:00,
2013-05-24 07:07:00,49.0,46.2,29.94,NNE,23,0.0,0.9,90,0.00,,,0.00,WUHU216HW,2013-05-24 14:07:00,
2013-05-24 07:12:00,49.1,46.4,29.94,NE,45,0.0,0.4,90,0.00,,,0.00,WUHU216HW,2013-05-24 14:12:00,
2013-05-24 07:17:00,49.1,46.4,29.94,NE,45,0.0,0.4,90,0.00,,,0.00,WUHU216HW,2013-05-24 14:17:00,
2013-05-24 07:22:00,49.3,46.5,29.94,North,0,0.9,0.9,90,0.00,,,0.00,WUHU216HW,2013-05-24 14:22:00,
2013-05-24 07:27:00,49.3,46.5,29.94,North,0,0.0,0.9,90,0.01,,,0.00,WUHU216HW,2013-05-24 14:27:00,
2013-05-24 07:32:00,49.5,46.7,29.94,North,0,0.0,0.7,90,0.01,,,0.00,WUHU216HW,2013-05-24 14:32:00,
2013-05-24 07:37:00,49.5,46.7,29.94,North,0,0.0,0.0,90,0.01,,,0.00,WUHU216HW,2013-05-24 14:37:00,
2013-05-24 07:42:00,49.7,46.5,29.94,North,0,0.0,0.0,89,0.01,,,0.00,WUHU216HW,2013-05-24 14:42:00,
2013-05-24 07:47:00,49.9,46.7,29.95,North,0,0.0,0.0,89,0.01,,,0.00,WUHU216HW,2013-05-24 14:47:00,
2013-05-24 07:52:00,49.9,46.7,29.94,North,0,0.0,0.0,89,0.01,,,0.00,WUHU216HW,2013-05-24 14:52:00,
2013-05-24 07:57:00,50.0,46.5,29.95,North,0,0.2,0.2,88,0.01,,,0.00,WUHU216HW,2013-05-24 14:57:00,
2013-05-24 08:02:00,50.0,46.5,29.95,WNW,293,0.4,1.1,88,0.01,,,0.00,WUHU216HW,2013-05-24 15:02:00,
2013-05-24 08:07:00,50.0,46.5,29.95,SW,225,0.0,1.1,88,0.01,,,0.00,WUHU216HW,2013-05-24 15:07:00,
2013-05-24 08:12:00,50.0,46.3,29.95,SW,225,0.0,0.9,87,0.01,,,0.00,WUHU216HW,2013-05-24 15:12:00,
2013-05-24 08:17:00,50.2,46.5,29.95,SW,225,0.0,0.4,87,0.01,,,0.00,WUHU216HW,2013-05-24 15:17:00,
2013-05-24 08:22:00,50.4,46.6,29.95,WSW,248,1.1,1.1,87,0.00,,,0.00,WUHU216HW,2013-05-24 15:22:00,
2013-05-24 08:27:00,50.6,46.4,29.95,West,270,0.4,1.8,86,0.00,,,0.00,WUHU216HW,2013-05-24 15:27:00,
2013-05-24 08:32:00,50.6,46.4,29.95,WSW,248,1.1,1.8,86,0.00,,,0.00,WUHU216HW,2013-05-24 15:32:00,
2013-05-24 08:37:00,50.8,46.6,29.95,WSW,248,1.3,1.3,86,0.00,,,0.00,WUHU216HW,2013-05-24 15:37:00,
2013-05-24 08:42:00,50.8,47.0,29.95,NW,315,0.7,1.3,87,0.00,,,0.00,WUHU216HW,2013-05-24 15:42:00,
2013-05-24 08:47:00,51.1,47.4,29.95,WSW,248,0.9,1.1,87,0.00,,,0.00,WUHU216HW,2013-05-24 15:47:00,
2013-05-24 08:52:00,51.3,47.5,29.95,WSW,248,1.6,1.6,87,0.00,,,0.00,WUHU216HW,2013-05-24 15:52:00,
2013-05-24 08:57:00,51.5,47.3,29.95,WSW,248,1.1,1.6,86,0.00,,,0.00,WUHU216HW,2013-05-24 15:57:00,
2013-05-24 09:02:00,51.7,47.5,29.95,SW,225,0.0,1.8,86,0.00,,,0.00,WUHU216HW,2013-05-24 16:02:00,
2013-05-24 09:07:00,52.0,47.9,29.96,West,270,0.7,1.8,86,0.00,,,0.00,WUHU216HW,2013-05-24 16:07:00,
2013-05-24 09:12:00,52.2,48.1,29.96,SW,225,3.8,3.8,86,0.00,,,0.00,WUHU216HW,2013-05-24 16:12:00,
2013-05-24 09:17:00,52.6,48.2,29.96,WSW,248,1.3,3.8,85,0.00,,,0.00,WUHU216HW,2013-05-24 16:17:00,
2013-05-24 09:22:00,52.7,48.1,29.96,West,270,0.7,2.5,84,0.00,,,0.00,WUHU216HW,2013-05-24 16:22:00,
2013-05-24 09:27:00,52.7,48.1,29.96,WSW,248,0.0,1.6,84,0.00,,,0.00,WUHU216HW,2013-05-24 16:27:00,
2013-05-24 09:32:00,52.7,47.7,29.96,West,270,2.2,2.2,83,0.00,,,0.00,WUHU216HW,2013-05-24 16:32:00,
2013-05-24 09:37:00,52.7,47.7,29.96,West,270,0.2,3.1,83,0.00,,,0.00,WUHU216HW,2013-05-24 16:37:00,
2013-05-24 09:42:00,52.9,47.6,29.96,WSW,248,1.1,3.1,82,0.00,,,0.00,WUHU216HW,2013-05-24 16:42:00,
2013-05-24 09:47:00,52.9,47.6,29.96,NNW,338,2.0,2.5,82,0.00,,,0.00,WUHU216HW,2013-05-24 16:47:00,
2013-05-24 09:52:00,52.9,47.6,29.96,SW,225,2.2,2.2,82,0.00,,,0.00,WUHU216HW,2013-05-24 16:52:00,
2013-05-24 09:57:00,53.3,48.0,29.96,WSW,248,1.1,2.2,82,0.00,,,0.00,WUHU216HW,2013-05-24 16:57:00,
2013-05-24 10:02:00,53.6,48.0,29.96,SW,225,1.1,2.9,81,0.00,,,0.00,WUHU216HW,2013-05-24 17:02:00,
2013-05-24 10:07:00,53.6,48.0,29.96,SSW,203,1.8,2.9,81,0.00,,,0.00,WUHU216HW,2013-05-24 17:07:00,
2013-05-24 10:12:00,53.8,47.9,29.97,SSW,203,2.0,2.5,80,0.00,,,0.00,WUHU216HW,2013-05-24 17:12:00,
2013-05-24 10:17:00,53.6,47.7,29.96,WNW,293,0.9,2.5,80,0.00,,,0.00,WUHU216HW,2013-05-24 17:17:00,
2013-05-24 10:22:00,53.6,47.3,29.97,SW,225,0.4,1.8,79,0.00,,,0.00,WUHU216HW,2013-05-24 17:22:00,
2013-05-24 10:27:00,53.3,47.3,29.97,WSW,248,1.1,1.8,80,0.00,,,0.00,WUHU216HW,2013-05-24 17:27:00,
2013-05-24 10:32:00,53.3,47.0,29.97,West,270,1.1,1.6,79,0.00,,,0.00,WUHU216HW,2013-05-24 17:32:00,
2013-05-24 10:37:00,53.3,47.3,29.96,SSW,203,1.1,1.6,80,0.00,,,0.00,WUHU216HW,2013-05-24 17:37:00,
2013-05-24 10:42:00,53.3,47.0,29.96,WSW,248,1.1,1.8,79,0.00,,,0.00,WUHU216HW,2013-05-24 17:42:00,
2013-05-24 10:47:00,53.5,47.2,29.96,NNE,23,0.4,1.8,79,0.00,,,0.00,WUHU216HW,2013-05-24 17:47:00,
2013-05-24 10:52:00,53.8,47.5,29.96,WSW,248,1.1,1.8,79,0.00,,,0.00,WUHU216HW,2013-05-24 17:52:00,
2013-05-24 10:57:00,54.4,48.0,29.96,WSW,248,3.6,3.6,79,0.00,,,0.00,WUHU216HW,2013-05-24 17:57:00,
2013-05-24 11:02:00,54.9,48.5,29.96,WSW,248,1.1,3.6,79,0.00,,,0.00,WUHU216HW,2013-05-24 18:02:00,
2013-05-24 11:07:00,55.6,48.5,29.96,SE,135,0.4,2.7,77,0.00,,,0.00,WUHU216HW,2013-05-24 18:07:00,
2013-05-24 11:12:00,56.5,49.0,29.96,ESE,113,1.1,1.6,76,0.00,,,0.00,WUHU216HW,2013-05-24 18:12:00,
2013-05-24 11:17:00,56.9,48.2,29.96,SSW,203,0.4,1.6,73,0.00,,,0.00,WUHU216HW,2013-05-24 18:17:00,
2013-05-24 11:22:00,57.2,49.0,29.96,SSW,203,0.2,0.4,74,0.00,,,0.00,WUHU216HW,2013-05-24 18:22:00,
2013-05-24 11:27:00,57.4,48.4,29.97,South,180,0.4,1.1,72,0.00,,,0.00,WUHU216HW,2013-05-24 18:27:00,
2013-05-24 11:32:00,57.8,49.1,29.97,SSW,203,0.4,1.1,73,0.00,,,0.00,WUHU216HW,2013-05-24 18:32:00,
2013-05-24 11:37:00,58.0,47.9,29.97,East,90,1.6,2.5,69,0.00,,,0.00,WUHU216HW,2013-05-24 18:37:00,
2013-05-24 11:42:00,58.3,49.0,29.97,ESE,113,1.1,2.5,71,0.00,,,0.00,WUHU216HW,2013-05-24 18:42:00,
2013-05-24 11:47:00,58.5,49.1,29.97,East,90,0.4,1.1,71,0.00,,,0.00,WUHU216HW,2013-05-24 18:47:00,
2013-05-24 11:52:00,58.7,47.7,29.97,SW,225,1.3,2.0,67,0.00,,,0.00,WUHU216HW,2013-05-24 18:52:00,
2013-05-24 11:57:00,58.9,47.1,29.97,ENE,68,0.2,2.0,65,0.00,,,0.00,WUHU216HW,2013-05-24 18:57:00,
2013-05-24 12:02:00,59.0,48.1,29.97,SSW,203,0.9,1.3,67,0.00,,,0.00,WUHU216HW,2013-05-24 19:02:00,
2013-05-24 12:07:00,59.4,48.1,29.97,NNE,23,0.9,0.9,66,0.00,,,0.00,WUHU216HW,2013-05-24 19:07:00,
2013-05-24 12:12:00,59.8,48.4,29.97,WSW,248,1.3,2.7,66,0.00,,,0.00,WUHU216HW,2013-05-24 19:12:00,
2013-05-24 12:17:00,59.6,48.3,29.97,SW,225,1.8,3.8,66,0.00,,,0.00,WUHU216HW,2013-05-24 19:17:00,
2013-05-24 12:22:00,59.0,48.1,29.97,WNW,293,3.1,4.9,67,0.00,,,0.00,WUHU216HW,2013-05-24 19:22:00,
2013-05-24 12:27:00,59.0,48.5,29.97,West,270,2.5,4.9,68,0.00,,,0.00,WUHU216HW,2013-05-24 19:27:00,
2013-05-24 12:32:00,59.0,48.1,29.97,West,270,1.1,4.7,67,0.00,,,0.00,WUHU216HW,2013-05-24 19:32:00,
2013-05-24 12:37:00,59.4,47.6,29.97,NE,45,1.6,4.7,65,0.00,,,0.00,WUHU216HW,2013-05-24 19:37:00,
2013-05-24 12:42:00,59.2,47.0,29.97,WSW,248,1.8,3.4,64,0.00,,,0.00,WUHU216HW,2013-05-24 19:42:00,
2013-05-24 12:47:00,58.9,47.1,29.97,West,270,1.3,3.4,65,0.00,,,0.00,WUHU216HW,2013-05-24 19:47:00,
2013-05-24 12:52:00,58.7,46.9,29.97,West,270,3.6,3.6,65,0.00,,,0.00,WUHU216HW,2013-05-24 19:52:00,
2013-05-24 12:57:00,58.3,46.2,29.97,WSW,248,4.7,4.7,64,0.00,,,0.00,WUHU216HW,2013-05-24 19:57:00,
2013-05-24 13:02:00,58.3,47.3,29.97,WNW,293,3.8,4.7,67,0.00,,,0.00,WUHU216HW,2013-05-24 20:02:00,
2013-05-24 13:07:00,58.9,48.7,29.97,West,270,1.8,3.8,69,0.00,,,0.00,WUHU216HW,2013-05-24 20:07:00,
2013-05-24 13:12:00,59.0,47.3,29.97,WNW,293,5.1,5.1,65,0.00,,,0.00,WUHU216HW,2013-05-24 20:12:00,
2013-05-24 13:17:00,58.7,47.4,29.97,SSW,203,0.9,5.1,66,0.00,,,0.00,WUHU216HW,2013-05-24 20:17:00,
2013-05-24 13:22:00,58.5,47.5,29.97,SW,225,1.8,3.4,67,0.00,,,0.00,WUHU216HW,2013-05-24 20:22:00,
2013-05-24 13:27:00,58.3,46.5,29.97,SW,225,1.1,3.4,65,0.00,,,0.00,WUHU216HW,2013-05-24 20:27:00,
2013-05-24 13:32:00,58.1,46.8,29.97,West,270,0.7,2.9,66,0.00,,,0.00,WUHU216HW,2013-05-24 20:32:00,
2013-05-24 13:37:00,58.3,47.3,29.97,ESE,113,0.4,3.6,67,0.00,,,0.00,WUHU216HW,2013-05-24 20:37:00,
2013-05-24 13:42:00,58.9,47.9,29.97,WNW,293,1.6,3.6,67,0.00,,,0.00,WUHU216HW,2013-05-24 20:42:00,
2013-05-24 13:47:00,59.0,48.1,29.97,ESE,113,1.3,1.8,67,0.00,,,0.00,WUHU216HW,2013-05-24 20:47:00,
2013-05-24 13:52:00,59.0,47.3,29.97,SW,225,1.1,2.7,65,0.00,,,0.00,WUHU216HW,2013-05-24 20:52:00,
2013-05-24 13:57:00,58.7,46.5,29.97,WSW,248,1.3,4.0,64,0.00,,,0.00,WUHU216HW,2013-05-24 20:57:00,
2013-05-24 14:02:00,58.9,46.7,29.97,SSW,203,0.7,4.0,64,0.00,,,0.00,WUHU216HW,2013-05-24 21:02:00,
2013-05-24 14:07:00,58.7,47.4,29.97,ESE,113,0.9,2.7,66,0.00,,,0.00,WUHU216HW,2013-05-24 21:07:00,
2013-05-24 14:12:00,59.4,48.4,29.97,East,90,0.9,1.3,67,0.00,,,0.00,WUHU216HW,2013-05-24 21:12:00,
2013-05-24 14:17:00,59.6,47.3,29.96,ESE,113,0.0,1.1,64,0.00,,,0.00,WUHU216HW,2013-05-24 21:17:00,
2013-05-24 14:22:00,59.4,47.2,29.96,SE,135,0.2,1.1,64,0.00,,,0.00,WUHU216HW,2013-05-24 21:22:00,
2013-05-24 14:27:00,59.6,47.0,29.96,SSW,203,1.8,1.8,63,0.00,,,0.00,WUHU216HW,2013-05-24 21:27:00,
2013-05-24 14:32:00,59.9,46.9,29.96,ESE,113,0.7,2.7,62,0.00,,,0.00,WUHU216HW,2013-05-24 21:32:00,
2013-05-24 14:37:00,60.3,48.1,29.96,SE,135,0.9,2.7,64,0.00,,,0.00,WUHU216HW,2013-05-24 21:37:00,
2013-05-24 14:42:00,60.5,48.7,29.96,ESE,113,0.4,1.3,65,0.00,,,0.00,WUHU216HW,2013-05-24 21:42:00,
2013-05-24 14:47:00,60.8,47.8,29.96,SE,135,0.4,2.2,62,0.00,,,0.00,WUHU216HW,2013-05-24 21:47:00,
2013-05-24 14:52:00,60.8,48.6,29.96,ESE,113,0.4,2.2,64,0.00,,,0.00,WUHU216HW,2013-05-24 21:52:00,
2013-05-24 14:57:00,60.8,48.3,29.96,ESE,113,0.7,1.6,63,0.00,,,0.00,WUHU216HW,2013-05-24 21:57:00,
2013-05-24 15:02:00,60.8,47.8,29.96,East,90,1.1,1.6,62,0.00,,,0.00,WUHU216HW,2013-05-24 22:02:00,
2013-05-24 15:07:00,60.8,47.0,29.96,SSE,158,0.9,2.0,60,0.00,,,0.00,WUHU216HW,2013-05-24 22:07:00,
2013-05-24 15:12:00,61.0,48.0,29.96,ENE,68,1.3,2.2,62,0.00,,,0.00,WUHU216HW,2013-05-24 22:12:00,
2013-05-24 15:17:00,61.0,48.4,29.96,East,90,0.4,2.2,63,0.00,,,0.00,WUHU216HW,2013-05-24 22:17:00,
2013-05-24 15:22:00,61.0,47.2,29.96,SE,135,0.4,0.9,60,0.00,,,0.00,WUHU216HW,2013-05-24 22:22:00,
2013-05-24 15:27:00,61.2,48.2,29.96,ESE,113,0.4,0.9,62,0.00,,,0.00,WUHU216HW,2013-05-24 22:27:00,
2013-05-24 15:32:00,61.2,46.8,29.96,ENE,68,0.0,0.7,59,0.00,,,0.00,WUHU216HW,2013-05-24 22:32:00,
2013-05-24 15:37:00,61.4,47.9,29.96,NNE,23,1.6,1.6,61,0.00,,,0.00,WUHU216HW,2013-05-24 22:37:00,
2013-05-24 15:42:00,61.4,45.6,29.96,NE,45,0.9,1.6,56,0.00,,,0.00,WUHU216HW,2013-05-24 22:42:00,
2013-05-24 15:47:00,61.6,46.6,29.96,West,270,2.5,2.5,58,0.00,,,0.00,WUHU216HW,2013-05-24 22:47:00,
2013-05-24 15:52:00,61.9,47.0,29.96,North,0,1.1,2.5,58,0.00,,,0.00,WUHU216HW,2013-05-24 22:52:00,
2013-05-24 15:57:00,61.9,46.5,29.96,SSE,158,0.2,1.8,57,0.00,,,0.00,WUHU216HW,2013-05-24 22:57:00,
2013-05-24 16:02:00,62.1,46.2,29.96,South,180,0.2,1.1,56,0.00,,,0.00,WUHU216HW,2013-05-24 23:02:00,
2013-05-24 16:07:00,61.9,45.6,29.96,SE,135,0.9,1.1,55,0.00,,,0.00,WUHU216HW,2013-05-24 23:07:00,
2013-05-24 16:12:00,61.9,46.5,29.96,WSW,248,0.0,1.3,57,0.00,,,0.00,WUHU216HW,2013-05-24 23:12:00,
2013-05-24 16:17:00,61.9,47.0,29.96,South,180,1.1,1.3,58,0.00,,,0.00,WUHU216HW,2013-05-24 23:17:00,
2013-05-24 16:22:00,61.9,46.0,29.96,SSE,158,0.0,1.1,56,0.00,,,0.00,WUHU216HW,2013-05-24 23:22:00,
2013-05-24 16:27:00,61.9,46.0,29.96,East,90,0.0,1.1,56,0.00,,,0.00,WUHU216HW,2013-05-24 23:27:00,
2013-05-24 16:32:00,61.9,46.5,29.96,SW,225,0.2,1.1,57,0.00,,,0.00,WUHU216HW,2013-05-24 23:32:00,
2013-05-24 16:37:00,62.1,45.7,29.96,SE,135,0.9,1.3,55,0.00,,,0.00,WUHU216HW,2013-05-24 23:37:00,
2013-05-24 16:42:00,62.1,45.7,29.96,WSW,248,0.9,1.6,55,0.00,,,0.00,WUHU216HW,2013-05-24 23:42:00,
2013-05-24 16:47:00,62.3,46.8,29.96,SW,225,1.8,1.8,57,0.00,,,0.00,WUHU216HW,2013-05-24 23:47:00,
2013-05-24 16:52:00,62.8,46.4,29.96,WSW,248,1.3,2.5,55,0.00,,,0.00,WUHU216HW,2013-05-24 23:52:00,
2013-05-24 16:57:00,63.0,46.5,29.96,ESE,113,0.4,2.5,55,0.00,,,0.00,WUHU216HW,2013-05-24 23:57:00,
2013-05-24 17:02:00,63.2,45.7,29.96,WSW,248,1.1,4.0,53,0.00,,,0.00,WUHU216HW,2013-05-25 00:02:00,
2013-05-24 17:07:00,63.4,46.8,29.96,South,180,1.1,4.0,55,0.00,,,0.00,WUHU216HW,2013-05-25 00:07:00,
2013-05-24 17:12:00,63.7,46.6,29.96,SSW,203,2.9,2.9,54,0.00,,,0.00,WUHU216HW,2013-05-25 00:12:00,
2013-05-24 17:17:00,63.9,46.8,29.96,WSW,248,0.7,3.4,54,0.00,,,0.00,WUHU216HW,2013-05-25 00:17:00,
2013-05-24 17:22:00,63.7,46.6,29.96,WSW,248,0.4,4.0,54,0.00,,,0.00,WUHU216HW,2013-05-25 00:22:00,
2013-05-24 17:27:00,63.7,46.2,29.96,West,270,1.8,4.0,53,0.00,,,0.00,WUHU216HW,2013-05-25 00:27:00,
2013-05-24 17:32:00,63.5,47.0,29.96,WSW,248,1.1,5.1,55,0.00,,,0.00,WUHU216HW,2013-05-25 00:32:00,
2013-05-24 17:37:00,63.4,46.4,29.96,SW,225,2.0,5.1,54,0.00,,,0.00,WUHU216HW,2013-05-25 00:37:00,
2013-05-24 17:42:00,63.4,46.8,29.96,West,270,0.4,2.0,55,0.00,,,0.00,WUHU216HW,2013-05-25 00:42:00,
2013-05-24 17:47:00,63.4,46.8,29.96,South,180,0.2,1.8,55,0.00,,,0.00,WUHU216HW,2013-05-25 00:47:00,
2013-05-24 17:52:00,63.4,47.4,29.96,WSW,248,0.7,1.8,56,0.00,,,0.00,WUHU216HW,2013-05-25 00:52:00,
2013-05-24 17:57:00,63.4,46.8,29.96,West,270,1.8,1.8,55,0.00,,,0.00,WUHU216HW,2013-05-25 00:57:00,
2013-05-24 18:02:00,63.0,47.0,29.96,South,180,0.7,3.1,56,0.00,,,0.00,WUHU216HW,2013-05-25 01:02:00,
2013-05-24 18:07:00,63.0,47.0,29.96,North,0,0.4,3.1,56,0.00,,,0.00,WUHU216HW,2013-05-25 01:07:00,
2013-05-24 18:12:00,62.6,46.2,29.96,SE,135,0.4,1.1,55,0.00,,,0.00,WUHU216HW,2013-05-25 01:12:00,
2013-05-24 18:17:00,62.5,46.0,29.96,SW,225,0.9,1.8,55,0.00,,,0.00,WUHU216HW,2013-05-25 01:17:00,
2013-05-24 18:22:00,62.3,46.8,29.96,WSW,248,2.0,2.0,57,0.00,,,0.00,WUHU216HW,2013-05-25 01:22:00,
2013-05-24 18:27:00,61.9,46.5,29.96,SW,225,1.6,3.1,57,0.00,,,0.00,WUHU216HW,2013-05-25 01:27:00,
2013-05-24 18:32:00,61.7,46.4,29.97,WSW,248,0.2,3.1,57,0.00,,,0.00,WUHU216HW,2013-05-25 01:32:00,
2013-05-24 18:37:00,61.6,46.6,29.96,North,0,0.2,2.9,58,0.00,,,0.00,WUHU216HW,2013-05-25 01:37:00,
2013-05-24 18:42:00,61.6,46.6,29.97,SSW,203,0.4,0.9,58,0.00,,,0.00,WUHU216HW,2013-05-25 01:42:00,
2013-05-24 18:47:00,61.4,47.0,29.97,NW,315,0.4,2.0,59,0.00,,,0.00,WUHU216HW,2013-05-25 01:47:00,
2013-05-24 18:52:00,61.4,47.4,29.97,SW,225,0.4,4.0,60,0.00,,,0.00,WUHU216HW,2013-05-25 01:52:00,
2013-05-24 18:57:00,61.2,46.8,29.97,West,270,1.8,4.0,59,0.00,,,0.00,WUHU216HW,2013-05-25 01:57:00,
2013-05-24 19:02:00,61.0,47.2,29.97,SW,225,3.4,3.4,60,0.00,,,0.00,WUHU216HW,2013-05-25 02:02:00,
2013-05-24 19:07:00,60.8,47.4,29.97,West,270,1.3,3.4,61,0.00,,,0.00,WUHU216HW,2013-05-25 02:07:00,
2013-05-24 19:12:00,60.5,46.2,29.97,SW,225,3.6,3.6,59,0.00,,,0.00,WUHU216HW,2013-05-25 02:12:00,
2013-05-24 19:17:00,60.1,46.3,29.97,West,270,1.3,4.0,60,0.00,,,0.00,WUHU216HW,2013-05-25 02:17:00,
2013-05-24 19:22:00,59.8,46.4,29.97,WSW,248,0.0,4.0,61,0.00,,,0.00,WUHU216HW,2013-05-25 02:22:00,
2013-05-24 19:27:00,59.6,46.5,29.97,ESE,113,0.4,3.4,62,0.00,,,0.00,WUHU216HW,2013-05-25 02:27:00,
2013-05-24 19:32:00,59.4,46.4,29.98,WSW,248,1.8,1.8,62,0.00,,,0.00,WUHU216HW,2013-05-25 02:32:00,
2013-05-24 19:37:00,59.2,46.2,29.98,SE,135,1.3,3.4,62,0.00,,,0.00,WUHU216HW,2013-05-25 02:37:00,
2013-05-24 19:42:00,58.9,46.3,29.98,WSW,248,0.4,3.4,63,0.00,,,0.00,WUHU216HW,2013-05-25 02:42:00,
2013-05-24 19:47:00,58.9,46.7,29.98,SSW,203,0.7,2.9,64,0.00,,,0.00,WUHU216HW,2013-05-25 02:47:00,
2013-05-24 19:52:00,58.7,46.5,29.98,SE,135,0.7,2.5,64,0.00,,,0.00,WUHU216HW,2013-05-25 02:52:00,
2013-05-24 19:57:00,58.3,47.0,29.98,SW,225,0.4,2.5,66,0.00,,,0.00,WUHU216HW,2013-05-25 02:57:00,
2013-05-24 20:02:00,58.3,47.3,29.98,WSW,248,2.0,2.5,67,0.00,,,0.00,WUHU216HW,2013-05-25 03:02:00,
2013-05-24 20:07:00,58.0,47.1,29.98,WSW,248,0.4,2.2,67,0.00,,,0.00,WUHU216HW,2013-05-25 03:07:00,
2013-05-24 20:12:00,58.0,47.1,29.98,SE,135,1.8,1.8,67,0.00,,,0.00,WUHU216HW,2013-05-25 03:12:00,
2013-05-24 20:17:00,57.8,46.9,29.98,SW,225,0.4,1.8,67,0.00,,,0.00,WUHU216HW,2013-05-25 03:17:00,
2013-05-24 20:22:00,57.6,46.7,29.98,WSW,248,0.9,1.8,67,0.00,,,0.00,WUHU216HW,2013-05-25 03:22:00,
2013-05-24 20:27:00,57.6,47.5,29.98,SW,225,0.4,1.6,69,0.00,,,0.00,WUHU216HW,2013-05-25 03:27:00,
2013-05-24 20:32:00,57.6,47.9,29.98,SW,225,0.9,1.6,70,0.00,,,0.00,WUHU216HW,2013-05-25 03:32:00,
2013-05-24 20:37:00,57.4,48.4,29.99,WSW,248,0.0,1.1,72,0.00,,,0.00,WUHU216HW,2013-05-25 03:37:00,
2013-05-24 20:42:00,57.2,47.9,29.98,West,270,0.4,1.1,71,0.00,,,0.00,WUHU216HW,2013-05-25 03:42:00,
2013-05-24 20:47:00,57.2,47.5,29.99,SSW,203,0.4,2.0,70,0.00,,,0.00,WUHU216HW,2013-05-25 03:47:00,
2013-05-24 20:52:00,57.1,47.0,29.99,SW,225,1.3,2.0,69,0.00,,,0.00,WUHU216HW,2013-05-25 03:52:00,
2013-05-24 20:57:00,56.9,47.2,29.99,WSW,248,1.6,1.6,70,0.00,,,0.00,WUHU216HW,2013-05-25 03:57:00,
2013-05-24 21:01:00,56.9,47.2,29.99,SW,225,0.0,1.8,70,0.00,,,0.00,WUHU216HW,2013-05-25 04:01:00,
2013-05-24 21:06:00,56.7,47.7,29.99,WSW,248,0.0,1.8,72,0.00,,,0.00,WUHU216HW,2013-05-25 04:06:00,
2013-05-24 21:11:00,56.7,47.7,29.99,SW,225,0.0,1.1,72,0.00,,,0.00,WUHU216HW,2013-05-25 04:11:00,
2013-05-24 21:16:00,56.7,48.4,29.99,SW,225,0.0,0.7,74,0.00,,,0.00,WUHU216HW,2013-05-25 04:16:00,
2013-05-24 21:21:00,56.5,48.6,29.99,NE,45,0.4,0.7,75,0.00,,,0.00,WUHU216HW,2013-05-25 04:21:00,
2013-05-24 21:26:00,56.5,49.0,30.00,SSE,158,1.1,1.1,76,0.00,,,0.00,WUHU216HW,2013-05-25 04:26:00,
2013-05-24 21:31:00,56.2,49.0,29.99,SSE,158,0.4,1.1,77,0.00,,,0.00,WUHU216HW,2013-05-25 04:31:00,
2013-05-24 21:36:00,56.2,49.0,30.00,SSE,158,0.2,1.1,77,0.00,,,0.00,WUHU216HW,2013-05-25 04:36:00,
2013-05-24 21:41:00,56.0,49.1,30.00,NNE,23,0.2,1.1,78,0.00,,,0.00,WUHU216HW,2013-05-25 04:41:00,
2013-05-24 21:46:00,55.8,49.3,30.00,SW,225,0.7,1.1,79,0.00,,,0.00,WUHU216HW,2013-05-25 04:46:00,
2013-05-24 21:51:00,55.4,49.3,30.00,SSE,158,1.1,1.1,80,0.00,,,0.00,WUHU216HW,2013-05-25 04:51:00,
2013-05-24 21:56:00,55.4,49.0,30.00,ESE,113,0.4,1.1,79,0.00,,,0.00,WUHU216HW,2013-05-25 04:56:00,
2013-05-24 22:01:00,55.3,49.5,30.00,NW,315,1.1,1.1,81,0.00,,,0.00,WUHU216HW,2013-05-25 05:01:00,
2013-05-24 22:06:00,55.1,49.3,30.00,WSW,248,2.2,2.2,81,0.00,,,0.00,WUHU216HW,2013-05-25 05:06:00,
2013-05-24 22:11:00,55.1,49.0,30.00,South,180,0.0,2.2,80,0.00,,,0.00,WUHU216HW,2013-05-25 05:11:00,
2013-05-24 22:16:00,54.9,48.5,30.00,South,180,0.4,2.7,79,0.00,,,0.00,WUHU216HW,2013-05-25 05:16:00,
2013-05-24 22:21:00,54.5,48.2,30.00,WSW,248,0.0,2.9,79,0.00,,,0.00,WUHU216HW,2013-05-25 05:21:00,
2013-05-24 22:26:00,54.5,48.2,30.00,WSW,248,0.4,2.9,79,0.00,,,0.00,WUHU216HW,2013-05-25 05:26:00,
2013-05-24 22:31:00,54.4,48.0,30.00,South,180,0.0,1.6,79,0.00,,,0.00,WUHU216HW,2013-05-25 05:31:00,
2013-05-24 22:36:00,54.2,47.8,30.00,South,180,0.9,1.6,79,0.00,,,0.00,WUHU216HW,2013-05-25 05:36:00,
2013-05-24 22:41:00,54.0,47.7,30.00,SSW,203,0.2,1.3,79,0.00,,,0.00,WUHU216HW,2013-05-25 05:41:00,
2013-05-24 22:46:00,54.0,47.7,30.00,WSW,248,0.9,1.3,79,0.00,,,0.00,WUHU216HW,2013-05-25 05:46:00,
2013-05-24 22:51:00,54.0,47.7,30.00,WNW,293,1.1,1.1,79,0.00,,,0.00,WUHU216HW,2013-05-25 05:51:00,
2013-05-24 22:56:00,54.0,47.7,30.00,SW,225,0.4,1.1,79,0.00,,,0.00,WUHU216HW,2013-05-25 05:56:00,
2013-05-24 23:01:00,54.0,47.7,30.00,West,270,1.8,1.8,79,0.00,,,0.00,WUHU216HW,2013-05-25 06:01:00,
2013-05-24 23:06:00,53.8,47.5,29.99,WSW,248,0.0,1.8,79,0.00,,,0.00,WUHU216HW,2013-05-25 06:06:00,
2013-05-24 23:11:00,53.6,47.7,29.99,WSW,248,0.0,1.3,80,0.00,,,0.00,WUHU216HW,2013-05-25 06:11:00,
2013-05-24 23:16:00,53.6,47.7,29.99,SW,225,0.0,0.7,80,0.00,,,0.00,WUHU216HW,2013-05-25 06:16:00,
2013-05-24 23:21:00,53.5,47.5,29.99,West,270,0.0,0.4,80,0.00,,,0.00,WUHU216HW,2013-05-25 06:21:00,
2013-05-24 23:26:00,53.5,47.5,29.99,WSW,248,0.0,0.4,80,0.00,,,0.00,WUHU216HW,2013-05-25 06:26:00,
2013-05-24 23:31:00,53.5,47.5,29.99,WSW,248,0.0,0.4,80,0.00,,,0.00,WUHU216HW,2013-05-25 06:31:00,
2013-05-24 23:36:00,53.5,47.5,29.99,SW,225,0.0,1.1,80,0.00,,,0.00,WUHU216HW,2013-05-25 06:36:00,
2013-05-24 23:41:00,53.5,47.5,29.99,SW,225,0.0,1.1,80,0.00,,,0.00,WUHU216HW,2013-05-25 06:41:00,
2013-05-24 23:46:00,53.3,47.0,29.99,SE,135,0.0,0.7,79,0.00,,,0.00,WUHU216HW,2013-05-25 06:46:00,
2013-05-24 23:51:00,53.1,46.8,29.99,WSW,248,0.0,0.7,79,0.00,,,0.00,WUHU216HW,2013-05-25 06:51:00,
2013-05-24 23:56:00,53.1,46.8,29.99,WNW,293,0.0,0.2,79,0.00,,,0.00,WUHU216HW,2013-05-25 06:56:00,